createdAt,value
2023-05-16T00:00:21.517Z,12.70
2023-05-16T00:02:49.473Z,12.80
2023-05-16T00:05:17.616Z,12.70
2023-05-16T00:07:47.427Z,12.60
2023-05-16T00:10:16.525Z,12.60
2023-05-16T00:12:44.295Z,12.50
2023-05-16T00:15:14.129Z,12.40
2023-05-16T00:17:45.809Z,12.50
2023-05-16T00:20:14.158Z,12.40
2023-05-16T00:22:42.146Z,12.40
2023-05-16T00:25:10.608Z,12.40
2023-05-16T00:27:39.740Z,12.40
2023-05-16T00:30:08.718Z,12.50
2023-05-16T00:32:37.137Z,12.50
2023-05-16T00:35:05.640Z,12.40
2023-05-16T00:37:33.383Z,12.40
2023-05-16T00:40:01.140Z,12.50
2023-05-16T00:42:28.944Z,12.60
2023-05-16T00:44:58.056Z,12.60
2023-05-16T00:47:25.875Z,12.60
2023-05-16T00:49:53.938Z,12.50
2023-05-16T00:52:21.785Z,12.50
2023-05-16T00:54:49.704Z,12.50
2023-05-16T00:57:17.778Z,12.40
2023-05-16T00:59:46.294Z,12.40
2023-05-16T01:02:15.867Z,12.30
2023-05-16T01:04:44.932Z,12.40
2023-05-16T01:07:12.864Z,12.40
2023-05-16T01:09:41.141Z,12.40
2023-05-16T01:12:15.802Z,12.40
2023-05-16T01:14:51.487Z,12.40
2023-05-16T01:17:27.526Z,12.40
2023-05-16T01:20:06.375Z,12.40
2023-05-16T01:22:47.576Z,12.50
2023-05-16T01:25:27.942Z,12.60
2023-05-16T01:27:59.351Z,12.50
2023-05-16T01:30:27.107Z,12.50
2023-05-16T01:32:54.913Z,12.50
2023-05-16T01:35:22.712Z,12.40
2023-05-16T01:37:58.160Z,12.40
2023-05-16T01:40:30.965Z,12.30
2023-05-16T01:43:02.995Z,12.30
2023-05-16T01:45:34.188Z,12.20
2023-05-16T01:48:08.736Z,12.30
2023-05-16T01:50:44.094Z,12.30
2023-05-16T01:53:19.686Z,12.30
2023-05-16T01:55:49.445Z,12.50
2023-05-16T01:58:22.319Z,12.60
2023-05-16T02:00:50.168Z,12.60
2023-05-16T02:03:18.628Z,12.50
2023-05-16T02:05:46.430Z,12.50
2023-05-16T02:08:15.081Z,12.40
2023-05-16T02:10:42.885Z,12.30
2023-05-16T02:13:10.823Z,12.30
2023-05-16T02:15:39.941Z,12.40
2023-05-16T02:18:07.814Z,12.30
2023-05-16T02:20:35.712Z,12.30
2023-05-16T02:23:03.592Z,12.40
2023-05-16T02:25:31.356Z,12.40
2023-05-16T02:27:59.151Z,12.40
2023-05-16T02:30:26.933Z,12.40
2023-05-16T02:32:56.333Z,12.30
2023-05-16T02:35:24.462Z,12.30
2023-05-16T02:37:52.517Z,12.20
2023-05-16T02:40:20.351Z,12.30
2023-05-16T02:42:48.157Z,12.30
2023-05-16T02:45:16.159Z,12.30
2023-05-16T02:47:43.972Z,12.30
2023-05-16T02:50:13.588Z,12.40
2023-05-16T02:52:41.368Z,12.50
2023-05-16T02:55:23.867Z,12.50
2023-05-16T02:57:51.837Z,12.40
2023-05-16T03:00:20.232Z,12.50
2023-05-16T03:02:48.131Z,12.60
2023-05-16T03:05:17.384Z,12.60
2023-05-16T03:07:45.386Z,12.60
2023-05-16T03:10:13.174Z,12.70
2023-05-16T03:12:40.928Z,12.70
2023-05-16T03:15:09.689Z,12.60
2023-05-16T03:17:37.479Z,12.50
2023-05-16T03:20:09.458Z,12.50
2023-05-16T03:22:38.748Z,12.50
2023-05-16T03:25:07.897Z,12.50
2023-05-16T03:27:36.079Z,12.50
2023-05-16T03:30:03.864Z,12.50
2023-05-16T03:32:31.713Z,12.50
2023-05-16T03:34:59.479Z,12.60
2023-05-16T03:37:27.438Z,12.60
2023-05-16T03:39:56.623Z,12.60
2023-05-16T03:42:24.453Z,12.60
2023-05-16T03:44:52.555Z,12.50
2023-05-16T03:47:20.383Z,12.50
2023-05-16T03:49:48.151Z,12.50
2023-05-16T03:52:15.958Z,12.40
2023-05-16T03:54:43.717Z,12.50
2023-05-16T03:57:12.898Z,12.50
2023-05-16T03:59:40.711Z,12.50
2023-05-16T04:02:08.984Z,12.40
2023-05-16T04:04:36.769Z,12.40
2023-05-16T04:07:04.813Z,12.40
2023-05-16T04:09:32.747Z,12.30
2023-05-16T04:12:01.911Z,12.30
2023-05-16T04:14:31.886Z,12.30
2023-05-16T04:16:59.755Z,12.30
2023-05-16T04:19:27.647Z,12.40
2023-05-16T04:21:55.510Z,12.30
2023-05-16T04:24:26.339Z,12.40
2023-05-16T04:26:54.134Z,12.30
2023-05-16T04:29:22.352Z,12.30
2023-05-16T04:31:51.531Z,12.30
2023-05-16T04:34:19.601Z,12.20
2023-05-16T04:36:47.638Z,12.30
2023-05-16T04:39:15.444Z,12.20
2023-05-16T04:41:43.181Z,12.20
2023-05-16T04:44:11.425Z,12.20
2023-05-16T04:46:39.263Z,12.20
2023-05-16T04:49:08.440Z,12.20
2023-05-16T04:51:36.232Z,12.20
2023-05-16T04:54:03.994Z,12.20
2023-05-16T04:56:31.957Z,12.20
2023-05-16T05:01:27.958Z,12.10
2023-05-16T05:03:55.772Z,12.00
2023-05-16T05:06:24.928Z,12.10
2023-05-16T05:08:52.749Z,12.10
2023-05-16T05:11:21.046Z,12.10
2023-05-16T05:13:50.742Z,12.00
2023-05-16T05:16:19.912Z,12.00
2023-05-16T05:18:47.824Z,12.00
2023-05-16T05:21:15.841Z,12.00
2023-05-16T05:23:44.985Z,12.10
2023-05-16T05:26:13.024Z,12.00
2023-05-16T05:28:42.171Z,12.00
2023-05-16T05:31:13.531Z,12.00
2023-05-16T05:33:42.266Z,12.00
2023-05-16T05:36:10.423Z,12.00
2023-05-16T05:38:38.297Z,11.90
2023-05-16T05:41:07.656Z,11.90
2023-05-16T05:43:35.445Z,11.90
2023-05-16T05:46:03.232Z,11.90
2023-05-16T05:48:32.415Z,11.90
2023-05-16T05:51:00.597Z,11.90
2023-05-16T05:53:28.409Z,11.80
2023-05-16T05:55:56.177Z,11.80
2023-05-16T05:58:25.277Z,11.80
2023-05-16T06:00:53.059Z,11.70
2023-05-16T06:03:21.347Z,11.70
2023-05-16T06:05:49.275Z,11.70
2023-05-16T06:08:17.106Z,11.60
2023-05-16T06:10:44.909Z,11.60
2023-05-16T06:13:12.709Z,11.50
2023-05-16T06:15:41.791Z,11.60
2023-05-16T06:18:09.602Z,11.60
2023-05-16T06:20:37.467Z,11.50
2023-05-16T06:23:05.227Z,11.50
2023-05-16T06:25:33.207Z,11.50
2023-05-16T06:28:00.992Z,11.50
2023-05-16T06:30:28.869Z,11.50
2023-05-16T06:32:58.140Z,11.60
2023-05-16T06:35:26.513Z,11.60
2023-05-16T06:37:54.518Z,11.60
2023-05-16T06:40:22.313Z,11.60
2023-05-16T06:42:50.185Z,11.60
2023-05-16T06:45:18.135Z,11.50
2023-05-16T06:47:46.018Z,11.50
2023-05-16T06:50:15.206Z,11.60
2023-05-16T06:52:43.089Z,11.60
2023-05-16T06:55:12.399Z,11.60
2023-05-16T06:57:40.663Z,11.50
2023-05-16T07:00:09.474Z,11.60
2023-05-16T07:02:37.455Z,11.60
2023-05-16T07:05:05.966Z,11.60
2023-05-16T07:07:35.113Z,11.60
2023-05-16T07:10:02.978Z,11.60
2023-05-16T07:12:31.340Z,11.60
2023-05-16T07:14:59.647Z,11.50
2023-05-16T07:17:27.641Z,11.50
2023-05-16T07:19:55.520Z,11.60
2023-05-16T07:22:23.296Z,11.50
2023-05-16T07:24:54.336Z,11.60
2023-05-16T07:27:23.592Z,11.60
2023-05-16T07:29:51.622Z,11.50
2023-05-16T07:32:19.522Z,11.50
2023-05-16T07:34:47.422Z,11.50
2023-05-16T07:37:16.234Z,11.60
2023-05-16T07:39:44.091Z,11.50
2023-05-16T07:42:13.299Z,11.50
2023-05-16T07:44:41.112Z,11.60
2023-05-16T07:47:08.892Z,11.60
2023-05-16T07:49:36.697Z,11.60
2023-05-16T07:52:04.691Z,11.60
2023-05-16T07:54:33.741Z,11.60
2023-05-16T07:57:01.585Z,11.60
2023-05-16T07:59:30.881Z,11.60
2023-05-16T08:01:58.805Z,11.50
2023-05-16T08:04:26.696Z,11.50
2023-05-16T08:06:54.496Z,11.60
2023-05-16T08:09:22.350Z,11.60
2023-05-16T08:11:50.196Z,11.60
2023-05-16T08:14:18.747Z,11.60
2023-05-16T08:16:48.018Z,11.70
2023-05-16T08:19:15.888Z,11.70
2023-05-16T08:21:43.819Z,11.70
2023-05-16T08:24:12.089Z,11.70
2023-05-16T08:26:40.120Z,11.70
2023-05-16T08:29:07.927Z,11.60
2023-05-16T08:31:36.010Z,11.60
2023-05-16T08:34:06.497Z,11.70
2023-05-16T08:36:34.772Z,11.70
2023-05-16T08:39:03.177Z,11.70
2023-05-16T08:41:31.252Z,11.70
2023-05-16T08:43:59.125Z,11.70
2023-05-16T08:46:29.234Z,11.70
2023-05-16T08:49:00.635Z,11.70
2023-05-16T08:51:35.395Z,11.80
2023-05-16T08:54:07.561Z,11.70
2023-05-16T08:56:36.118Z,11.70
2023-05-16T08:59:05.674Z,11.70
2023-05-16T09:01:33.658Z,11.70
2023-05-16T09:04:02.289Z,11.80
2023-05-16T09:06:31.704Z,11.80
2023-05-16T09:08:59.558Z,11.80
2023-05-16T09:11:27.577Z,11.70
2023-05-16T09:13:55.451Z,11.80
2023-05-16T09:16:23.399Z,11.80
2023-05-16T09:18:57.040Z,11.80
2023-05-16T09:21:28.375Z,11.80
2023-05-16T09:23:57.951Z,11.80
2023-05-16T09:26:26.510Z,11.80
2023-05-16T09:28:55.840Z,11.80
2023-05-16T09:31:26.797Z,11.80
2023-05-16T09:33:57.508Z,11.80
2023-05-16T09:36:26.491Z,11.80
2023-05-16T09:38:54.813Z,11.80
2023-05-16T09:41:24.129Z,11.80
2023-05-16T09:43:52.000Z,11.80
2023-05-16T09:46:20.377Z,11.70
2023-05-16T09:48:49.020Z,11.70
2023-05-16T09:51:16.881Z,11.70
2023-05-16T09:53:44.944Z,11.70
2023-05-16T09:56:16.424Z,11.70
2023-05-16T09:58:48.486Z,11.70
2023-05-16T10:01:16.327Z,11.70
2023-05-16T10:03:44.418Z,11.80
2023-05-16T10:06:14.417Z,11.80
2023-05-16T10:08:47.099Z,11.80
2023-05-16T10:11:15.395Z,11.80
2023-05-16T10:13:44.885Z,11.80
2023-05-16T10:16:15.704Z,11.80
2023-05-16T10:18:44.341Z,11.80
2023-05-16T10:21:15.995Z,11.80
2023-05-16T10:23:47.802Z,11.80
2023-05-16T10:26:18.372Z,11.80
2023-05-16T10:28:47.029Z,11.90
2023-05-16T10:31:23.077Z,11.90
2023-05-16T10:33:51.318Z,11.90
2023-05-16T10:36:19.470Z,11.90
2023-05-16T10:38:48.013Z,11.90
2023-05-16T10:41:15.935Z,11.90
2023-05-16T10:43:46.673Z,11.90
2023-05-16T10:46:15.655Z,11.90
2023-05-16T10:48:44.983Z,12.00
2023-05-16T10:51:36.527Z,12.00
2023-05-16T10:54:10.739Z,12.00
2023-05-16T10:56:39.117Z,12.00
2023-05-16T10:59:24.672Z,12.00
2023-05-16T11:01:54.220Z,12.00
2023-05-16T11:04:23.459Z,12.00
2023-05-16T11:06:53.920Z,12.00
2023-05-16T11:09:27.881Z,12.00
2023-05-16T11:12:00.969Z,12.00
2023-05-16T11:14:32.173Z,12.00
2023-05-16T11:17:07.783Z,12.00
2023-05-16T11:19:41.435Z,12.00
2023-05-16T11:22:17.074Z,11.90
2023-05-16T11:24:57.011Z,11.90
2023-05-16T11:27:27.821Z,12.00
2023-05-16T11:30:02.580Z,12.00
2023-05-16T11:32:32.546Z,12.00
2023-05-16T11:35:02.282Z,12.00
2023-05-16T11:37:30.121Z,12.00
2023-05-16T11:40:00.634Z,12.10
2023-05-16T11:42:31.435Z,12.00
2023-05-16T11:45:06.185Z,12.00
2023-05-16T11:47:34.968Z,12.00
2023-05-16T11:50:05.678Z,12.00
2023-05-16T11:52:33.639Z,12.00
2023-05-16T11:55:01.591Z,12.00
2023-05-16T11:57:29.514Z,12.00
2023-05-16T11:59:57.510Z,12.10
2023-05-16T12:02:25.681Z,12.10
2023-05-16T12:04:53.565Z,12.10
2023-05-16T12:07:23.342Z,12.10
2023-05-16T12:09:54.614Z,12.10
2023-05-16T12:12:22.766Z,12.10
2023-05-16T12:14:50.912Z,12.00
2023-05-16T12:17:20.395Z,12.00
2023-05-16T12:19:48.333Z,12.00
2023-05-16T12:22:18.101Z,12.00
2023-05-16T12:24:47.373Z,12.00
2023-05-16T12:27:22.958Z,12.00
2023-05-16T12:29:51.599Z,12.00
2023-05-16T12:32:20.039Z,12.00
2023-05-16T12:34:51.492Z,12.00
2023-05-16T12:37:19.831Z,11.90
2023-05-16T12:39:49.065Z,12.00
2023-05-16T12:42:16.949Z,12.00
2023-05-16T12:44:46.717Z,12.00
2023-05-16T12:47:14.562Z,11.90
2023-05-16T12:49:46.783Z,11.80
2023-05-16T12:52:20.666Z,11.80
2023-05-16T12:54:50.307Z,11.80
2023-05-16T12:57:19.763Z,11.80
2023-05-16T12:59:47.579Z,11.80
2023-05-16T13:02:16.759Z,11.80
2023-05-16T13:04:44.705Z,11.80
2023-05-16T13:07:12.954Z,11.80
2023-05-16T13:09:41.805Z,11.80
2023-05-16T13:12:11.540Z,11.80
2023-05-16T13:14:40.402Z,11.70
2023-05-16T13:17:09.083Z,11.70
2023-05-16T13:19:37.332Z,11.70
2023-05-16T13:22:05.452Z,11.70
2023-05-16T13:24:33.551Z,11.60
2023-05-16T13:27:01.377Z,11.60
2023-05-16T13:29:30.769Z,11.60
2023-05-16T13:31:58.677Z,11.60
2023-05-16T13:34:26.538Z,11.70
2023-05-16T13:36:55.090Z,11.60
2023-05-16T13:39:23.641Z,11.60
2023-05-16T13:41:51.669Z,11.60
2023-05-16T13:44:19.783Z,11.60
2023-05-16T13:46:49.388Z,11.60
2023-05-16T13:49:17.216Z,11.60
2023-05-16T13:51:45.021Z,11.60
2023-05-16T13:54:12.858Z,11.60
2023-05-16T13:56:40.716Z,11.50
2023-05-16T13:59:10.144Z,11.50
2023-05-16T14:01:39.583Z,11.50
2023-05-16T14:04:08.903Z,11.40
2023-05-16T14:06:37.253Z,11.40
2023-05-16T14:09:05.441Z,11.40
2023-05-16T14:11:33.240Z,11.40
2023-05-16T14:14:01.064Z,11.40
2023-05-16T14:16:29.957Z,11.30
2023-05-16T14:18:58.032Z,11.30
2023-05-16T14:21:27.720Z,11.30
2023-05-16T14:23:55.574Z,11.30
2023-05-16T14:26:25.323Z,11.30
2023-05-16T14:28:53.237Z,11.20
2023-05-16T14:31:21.309Z,11.20
2023-05-16T14:33:49.174Z,11.20
2023-05-16T14:36:17.137Z,11.30
2023-05-16T14:38:46.330Z,11.30
2023-05-16T14:41:14.172Z,11.30
2023-05-16T14:43:41.973Z,11.30
2023-05-16T14:46:09.830Z,11.30
2023-05-16T14:48:37.677Z,11.30
2023-05-16T14:51:05.805Z,11.30
2023-05-16T14:53:33.802Z,11.30
2023-05-16T14:56:03.768Z,11.30
2023-05-16T14:58:31.903Z,11.40
2023-05-16T15:00:59.886Z,11.30
2023-05-16T15:03:27.790Z,11.40
2023-05-16T15:05:55.735Z,11.40
2023-05-16T15:08:23.547Z,11.40
2023-05-16T15:10:51.417Z,11.40
2023-05-16T15:13:21.047Z,11.30
2023-05-16T15:15:48.918Z,11.30
2023-05-16T15:18:16.832Z,11.30
2023-05-16T15:20:44.689Z,11.30
2023-05-16T15:23:13.010Z,11.30
2023-05-16T15:25:40.864Z,11.30
2023-05-16T15:28:08.698Z,11.30
2023-05-16T15:30:37.863Z,11.30
2023-05-16T15:33:05.850Z,11.20
2023-05-16T15:35:33.702Z,11.20
2023-05-16T15:38:01.553Z,11.20
2023-05-16T15:40:29.535Z,11.20
2023-05-16T15:42:57.358Z,11.30
2023-05-16T15:45:25.238Z,11.30
2023-05-16T15:47:54.563Z,11.30
2023-05-16T15:50:22.669Z,11.30
2023-05-16T15:52:50.979Z,11.30
2023-05-16T15:55:18.976Z,11.30
2023-05-16T15:57:46.842Z,11.20
2023-05-16T16:00:15.831Z,11.20
2023-05-16T16:02:45.346Z,11.20
2023-05-16T16:05:14.767Z,11.20
2023-05-16T16:07:42.646Z,11.20
2023-05-16T16:10:11.625Z,11.10
2023-05-16T16:12:40.101Z,11.10
2023-05-16T16:15:10.442Z,11.10
2023-05-16T16:17:38.274Z,11.20
2023-05-16T16:20:07.027Z,11.20
2023-05-16T16:22:36.173Z,11.20
2023-05-16T16:25:03.969Z,11.20
2023-05-16T16:27:31.745Z,11.20
2023-05-16T16:29:59.604Z,11.20
2023-05-16T16:32:27.440Z,11.20
2023-05-16T16:34:56.630Z,11.10
2023-05-16T16:37:24.436Z,11.10
2023-05-16T16:39:53.634Z,11.10
2023-05-16T16:42:21.454Z,11.10
2023-05-16T16:44:49.391Z,11.10
2023-05-16T16:47:17.343Z,11.10
2023-05-16T16:49:45.534Z,11.10
2023-05-16T16:52:13.400Z,11.10
2023-05-16T16:54:41.489Z,11.10
2023-05-16T16:57:10.671Z,11.10
2023-05-16T16:59:38.517Z,11.10
2023-05-16T17:02:06.843Z,11.10
2023-05-16T17:04:36.570Z,11.10
2023-05-16T17:07:04.698Z,11.10
2023-05-16T17:09:32.531Z,11.10
2023-05-16T17:12:04.551Z,11.10
2023-05-16T17:14:33.687Z,11.10
2023-05-16T17:17:01.581Z,11.00
2023-05-16T17:19:29.585Z,11.00
2023-05-16T17:21:57.386Z,11.10
2023-05-16T17:24:25.169Z,11.10
2023-05-16T17:26:52.954Z,11.20
2023-05-16T17:29:20.761Z,11.20
2023-05-16T17:31:49.886Z,11.20
2023-05-16T17:34:17.746Z,11.20
2023-05-16T17:36:45.647Z,11.20
2023-05-16T17:39:14.800Z,11.20
2023-05-16T17:41:42.813Z,11.20
2023-05-16T17:44:10.653Z,11.20
2023-05-16T17:46:39.189Z,11.20
2023-05-16T17:49:09.288Z,11.20
2023-05-16T17:51:48.231Z,11.20
2023-05-16T17:54:17.019Z,11.20
2023-05-16T17:56:45.733Z,11.20
2023-05-16T17:59:14.735Z,11.20
2023-05-16T18:01:43.419Z,11.30
2023-05-16T18:04:13.393Z,11.20
2023-05-16T18:06:41.555Z,11.20
2023-05-16T18:09:10.300Z,11.20
2023-05-16T18:11:40.480Z,11.30
2023-05-16T18:14:09.484Z,11.20
2023-05-16T18:16:37.441Z,11.20
2023-05-16T18:19:08.538Z,11.20
2023-05-16T18:21:38.278Z,11.20
2023-05-16T18:24:08.315Z,11.20
2023-05-16T18:26:36.286Z,11.10
2023-05-16T18:29:04.245Z,11.20
2023-05-16T18:31:33.665Z,11.20
2023-05-16T18:34:02.831Z,11.20
2023-05-16T18:36:30.700Z,11.20
2023-05-16T18:38:59.911Z,11.20
2023-05-16T18:41:28.197Z,11.20
2023-05-16T18:43:56.005Z,11.20
2023-05-16T18:46:23.804Z,11.20
2023-05-16T18:48:51.850Z,11.20
2023-05-16T18:51:19.804Z,11.20
2023-05-16T18:53:47.631Z,11.20
2023-05-16T18:56:16.820Z,11.20
2023-05-16T18:58:44.716Z,11.10
2023-05-16T19:01:12.582Z,11.00
2023-05-16T19:03:40.622Z,11.00
2023-05-16T19:06:08.537Z,11.10
2023-05-16T19:08:47.027Z,11.00
2023-05-16T19:11:17.772Z,11.00
2023-05-16T19:13:45.760Z,11.00
2023-05-16T19:16:13.782Z,11.00
2023-05-16T19:18:42.002Z,11.10
2023-05-16T19:21:13.009Z,11.20
2023-05-16T19:23:40.838Z,11.10
2023-05-16T19:26:08.787Z,11.10
2023-05-16T19:28:40.470Z,10.90
2023-05-16T19:31:08.383Z,10.70
2023-05-16T19:33:37.052Z,10.60
2023-05-16T19:36:06.246Z,10.60
2023-05-16T19:38:34.099Z,10.40
2023-05-16T19:41:01.917Z,10.40
2023-05-16T19:43:29.769Z,10.40
2023-05-16T19:45:58.927Z,10.30
2023-05-16T19:48:27.862Z,10.20
2023-05-16T19:50:56.121Z,10.10
2023-05-16T19:53:24.010Z,10.10
2023-05-16T19:55:51.891Z,10.10
2023-05-16T19:58:19.720Z,10.20
2023-05-16T20:00:47.998Z,10.10
2023-05-16T20:03:20.050Z,10.00
2023-05-16T20:05:48.033Z,10.00
2023-05-16T20:08:15.954Z,10.00
2023-05-16T20:10:44.106Z,9.90
2023-05-16T20:13:11.970Z,9.80
2023-05-16T20:15:39.800Z,9.80
2023-05-16T20:18:07.781Z,9.80
2023-05-16T20:20:37.025Z,9.90
2023-05-16T20:23:04.933Z,10.00
2023-05-16T20:25:32.817Z,10.10
2023-05-16T20:28:00.723Z,10.00
2023-05-16T20:30:30.048Z,9.90
2023-05-16T20:32:58.054Z,9.80
2023-05-16T20:35:26.154Z,9.80
2023-05-16T20:37:55.344Z,9.70
2023-05-16T20:40:23.221Z,9.70
2023-05-16T20:42:51.078Z,9.80
2023-05-16T20:45:18.880Z,9.80
2023-05-16T20:47:47.449Z,9.70
2023-05-16T20:50:15.408Z,9.70
2023-05-16T20:52:43.240Z,9.70
2023-05-16T20:55:12.392Z,9.70
2023-05-16T20:57:42.271Z,9.60
2023-05-16T21:00:12.708Z,9.60
2023-05-16T21:02:40.583Z,9.60
2023-05-16T21:05:23.319Z,9.60
2023-05-16T21:07:52.679Z,9.50
2023-05-16T21:10:21.910Z,9.60
2023-05-16T21:12:50.157Z,9.60
2023-05-16T21:15:18.222Z,9.50
2023-05-16T21:17:46.404Z,9.70
2023-05-16T21:20:14.333Z,9.70
2023-05-16T21:22:42.552Z,9.70
2023-05-16T21:25:10.941Z,9.60
2023-05-16T21:27:40.092Z,9.50
2023-05-16T21:30:08.966Z,9.50
2023-05-16T21:32:36.807Z,9.60
2023-05-16T21:35:06.792Z,9.60
2023-05-16T21:37:34.685Z,9.60
2023-05-16T21:40:02.622Z,9.60
2023-05-16T21:42:30.543Z,9.60
2023-05-16T21:44:59.725Z,9.60
2023-05-16T21:47:27.552Z,9.50
2023-05-16T21:49:55.353Z,9.60
2023-05-16T21:52:23.167Z,9.40
2023-05-16T21:54:52.767Z,9.30
2023-05-16T21:57:20.607Z,9.30
2023-05-16T21:59:50.504Z,9.10
2023-05-16T22:02:22.872Z,9.10
2023-05-16T22:04:50.987Z,9.00
2023-05-16T22:07:18.943Z,8.90
2023-05-16T22:09:50.642Z,8.80
2023-05-16T22:12:18.557Z,8.80
2023-05-16T22:14:46.434Z,8.90
2023-05-16T22:17:14.254Z,9.00
2023-05-16T22:19:43.612Z,8.90
2023-05-16T22:22:12.145Z,8.80
2023-05-16T22:24:40.007Z,8.70
2023-05-16T22:27:07.902Z,8.70
2023-05-16T22:29:38.253Z,8.70
2023-05-16T22:32:08.262Z,8.80
2023-05-16T22:34:39.315Z,8.80
2023-05-16T22:37:08.769Z,8.70
2023-05-16T22:39:36.792Z,8.60
2023-05-16T22:42:04.986Z,8.60
2023-05-16T22:44:32.820Z,8.80
2023-05-16T22:47:00.765Z,8.70
2023-05-16T22:49:28.594Z,8.70
2023-05-16T22:51:56.407Z,8.50
2023-05-16T22:54:25.628Z,8.50
2023-05-16T22:56:53.473Z,8.50
2023-05-16T22:59:21.414Z,8.50
2023-05-16T23:01:49.303Z,8.50
2023-05-16T23:04:17.172Z,8.60
2023-05-16T23:06:44.996Z,8.60
2023-05-16T23:09:12.803Z,8.60
2023-05-16T23:11:42.009Z,8.60
2023-05-16T23:14:09.841Z,8.40
2023-05-16T23:16:37.676Z,8.50
2023-05-16T23:19:07.354Z,8.40
2023-05-16T23:21:37.395Z,8.40
2023-05-16T23:24:05.544Z,8.40
2023-05-16T23:26:33.434Z,8.40
2023-05-16T23:29:02.676Z,8.40
2023-05-16T23:31:30.621Z,8.30
2023-05-16T23:33:58.473Z,8.30
2023-05-16T23:36:26.347Z,8.20
2023-05-16T23:38:54.155Z,8.20
2023-05-16T23:41:22.016Z,8.10
2023-05-16T23:43:49.920Z,8.00
2023-05-16T23:46:19.098Z,7.90
2023-05-16T23:48:47.026Z,7.80
2023-05-16T23:51:14.987Z,7.80
2023-05-16T23:53:42.807Z,7.80
2023-05-16T23:56:10.659Z,7.70
2023-05-16T23:58:38.451Z,7.60
